createdAt,value
2019-02-19T00:01:53.646Z,7.00
2019-02-19T00:04:22.127Z,7.00
2019-02-19T00:06:51.027Z,6.90
2019-02-19T00:09:19.643Z,7.00
2019-02-19T00:11:48.216Z,7.00
2019-02-19T00:14:16.779Z,7.00
2019-02-19T00:16:45.265Z,7.00
2019-02-19T00:19:13.663Z,7.00
2019-02-19T00:21:42.116Z,7.00
2019-02-19T00:24:10.606Z,6.90
2019-02-19T00:26:39.004Z,6.90
2019-02-19T00:29:07.545Z,6.80
2019-02-19T00:31:35.935Z,6.80
2019-02-19T00:34:04.422Z,6.80
2019-02-19T00:36:33.002Z,6.60
2019-02-19T00:39:01.492Z,6.60
2019-02-19T00:41:29.979Z,6.50
2019-02-19T00:43:58.537Z,6.40
2019-02-19T00:46:27.030Z,6.40
2019-02-19T00:48:55.512Z,6.40
2019-02-19T00:51:24.075Z,6.30
2019-02-19T00:53:52.492Z,6.30
2019-02-19T00:56:20.950Z,6.30
2019-02-19T00:58:49.490Z,6.30
2019-02-19T01:01:18.002Z,6.30
2019-02-19T01:03:46.435Z,6.30
2019-02-19T01:06:14.977Z,6.20
2019-02-19T01:09:02.976Z,6.20
2019-02-19T01:11:31.454Z,6.20
2019-02-19T01:13:59.855Z,6.10
2019-02-19T01:16:28.381Z,6.00
2019-02-19T01:18:56.951Z,6.00
2019-02-19T01:21:25.418Z,5.90
2019-02-19T01:23:53.885Z,5.80
2019-02-19T01:26:22.347Z,5.70
2019-02-19T01:28:50.753Z,5.70
2019-02-19T01:31:19.185Z,5.70
2019-02-19T01:33:47.725Z,5.70
2019-02-19T01:36:16.509Z,5.70
2019-02-19T01:38:44.967Z,5.80
2019-02-19T01:41:13.495Z,5.90
2019-02-19T01:43:42.059Z,5.90
2019-02-19T01:46:10.394Z,6.00
2019-02-19T01:48:38.840Z,6.00
2019-02-19T01:51:07.308Z,6.00
2019-02-19T01:53:35.736Z,5.90
2019-02-19T01:56:04.192Z,5.80
2019-02-19T01:58:32.657Z,5.80
2019-02-19T02:01:01.152Z,5.80
2019-02-19T02:03:29.618Z,5.90
2019-02-19T02:05:58.114Z,6.00
2019-02-19T02:08:26.676Z,6.00
2019-02-19T02:10:55.201Z,5.90
2019-02-19T02:13:23.737Z,6.00
2019-02-19T02:15:52.248Z,6.10
2019-02-19T02:18:20.783Z,6.10
2019-02-19T02:20:49.320Z,6.00
2019-02-19T02:23:17.752Z,6.10
2019-02-19T02:25:46.213Z,6.10
2019-02-19T02:28:14.704Z,6.10
2019-02-19T02:30:43.155Z,6.10
2019-02-19T02:33:11.736Z,6.10
2019-02-19T02:35:40.103Z,6.10
2019-02-19T02:38:08.668Z,6.10
2019-02-19T02:40:37.158Z,6.10
2019-02-19T02:43:05.583Z,6.10
2019-02-19T02:45:33.977Z,6.00
2019-02-19T02:48:02.592Z,6.00
2019-02-19T02:50:31.060Z,5.80
2019-02-19T02:52:59.445Z,5.80
2019-02-19T02:55:27.865Z,5.70
2019-02-19T02:57:56.336Z,5.60
2019-02-19T03:00:24.833Z,5.60
2019-02-19T03:02:53.290Z,5.50
2019-02-19T03:05:21.777Z,5.50
2019-02-19T03:07:51.897Z,5.40
2019-02-19T03:10:20.384Z,5.30
2019-02-19T03:12:48.885Z,5.30
2019-02-19T03:15:17.505Z,5.20
2019-02-19T03:17:45.993Z,5.10
2019-02-19T03:20:14.575Z,5.00
2019-02-19T03:22:43.005Z,4.90
2019-02-19T03:25:11.481Z,4.90
2019-02-19T03:27:40.048Z,4.90
2019-02-19T03:30:10.316Z,4.90
2019-02-19T03:32:38.793Z,5.00
2019-02-19T03:35:07.346Z,5.10
2019-02-19T03:37:35.825Z,5.10
2019-02-19T03:40:04.768Z,5.00
2019-02-19T03:42:33.295Z,5.00
2019-02-19T03:45:08.568Z,5.00
2019-02-19T03:47:36.952Z,5.00
2019-02-19T03:50:06.150Z,5.10
2019-02-19T03:52:34.612Z,5.20
2019-02-19T03:55:03.141Z,5.10
2019-02-19T03:57:31.621Z,5.10
2019-02-19T04:00:00.278Z,5.10
2019-02-19T04:02:28.697Z,4.90
2019-02-19T04:27:45.464Z,5.00
2019-02-19T04:30:20.696Z,5.10
2019-02-19T04:44:05.545Z,5.10
2019-02-19T04:46:33.943Z,5.20
2019-02-19T04:49:02.374Z,5.10
2019-02-19T04:51:30.912Z,5.20
2019-02-19T04:53:59.336Z,5.20
2019-02-19T04:56:27.827Z,5.20
2019-02-19T04:58:56.365Z,5.20
2019-02-19T05:01:24.757Z,5.30
2019-02-19T05:03:53.184Z,5.20
2019-02-19T05:06:21.745Z,5.20
2019-02-19T05:08:50.200Z,5.10
2019-02-19T05:11:18.672Z,5.10
2019-02-19T05:13:47.198Z,5.10
2019-02-19T05:16:15.588Z,5.00
2019-02-19T05:18:44.091Z,5.00
2019-02-19T05:21:12.647Z,4.90
2019-02-19T05:23:41.072Z,4.90
2019-02-19T05:26:09.455Z,4.90
2019-02-19T05:28:37.948Z,4.90
2019-02-19T05:31:06.402Z,4.90
2019-02-19T05:33:34.900Z,4.90
2019-02-19T05:36:03.364Z,4.80
2019-02-19T05:38:31.860Z,4.80
2019-02-19T05:41:02.204Z,4.70
2019-02-19T05:43:30.794Z,4.60
2019-02-19T05:45:59.232Z,4.50
2019-02-19T05:48:27.722Z,4.30
2019-02-19T05:50:56.257Z,4.30
2019-02-19T05:53:24.721Z,4.20
2019-02-19T05:55:53.141Z,4.20
2019-02-19T05:58:21.664Z,4.20
2019-02-19T06:00:50.132Z,4.10
2019-02-19T06:03:18.598Z,4.10
2019-02-19T06:05:47.161Z,4.20
2019-02-19T06:08:15.572Z,4.30
2019-02-19T06:10:44.386Z,4.30
2019-02-19T06:13:13.015Z,4.40
2019-02-19T06:15:41.427Z,4.40
2019-02-19T06:18:09.887Z,4.40
2019-02-19T06:20:38.383Z,4.40
2019-02-19T06:23:06.879Z,4.50
2019-02-19T06:25:35.374Z,4.50
2019-02-19T06:28:03.796Z,4.50
2019-02-19T06:30:33.435Z,4.50
2019-02-19T06:33:01.940Z,4.50
2019-02-19T06:35:30.436Z,4.60
2019-02-19T06:37:58.978Z,4.60
2019-02-19T06:40:28.888Z,4.60
2019-02-19T06:42:57.410Z,4.50
2019-02-19T06:45:25.991Z,4.50
2019-02-19T06:47:54.463Z,4.40
2019-02-19T06:50:22.913Z,4.40
2019-02-19T06:52:51.428Z,4.50
2019-02-19T06:55:19.981Z,4.50
2019-02-19T06:57:48.498Z,4.60
2019-02-19T07:00:16.950Z,4.60
2019-02-19T07:03:03.272Z,4.70
2019-02-19T07:05:31.712Z,4.70
2019-02-19T07:08:00.183Z,4.80
2019-02-19T07:10:28.721Z,4.90
2019-02-19T07:12:57.213Z,5.00
2019-02-19T07:15:25.767Z,5.20
2019-02-19T07:17:55.412Z,5.30
2019-02-19T07:20:23.812Z,5.40
2019-02-19T07:22:52.270Z,5.30
2019-02-19T07:25:20.878Z,5.40
2019-02-19T07:27:49.385Z,5.50
2019-02-19T07:30:17.869Z,5.60
2019-02-19T07:32:46.346Z,5.70
2019-02-19T07:35:14.890Z,5.80
2019-02-19T07:37:43.358Z,5.80
2019-02-19T07:40:12.304Z,6.00
2019-02-19T07:42:40.776Z,6.10
2019-02-19T07:45:15.869Z,6.10
2019-02-19T07:47:44.315Z,6.30
2019-02-19T07:50:12.809Z,6.40
2019-02-19T07:52:41.328Z,6.50
2019-02-19T07:55:10.477Z,6.60
2019-02-19T07:57:38.957Z,6.70
2019-02-19T08:00:12.848Z,6.80
2019-02-19T08:02:41.314Z,6.80
2019-02-19T08:05:09.897Z,6.90
2019-02-19T08:07:38.315Z,7.00
2019-02-19T08:10:08.954Z,7.00
2019-02-19T08:12:37.497Z,7.10
2019-02-19T08:15:08.509Z,7.10
2019-02-19T08:17:36.907Z,7.20
2019-02-19T08:20:15.362Z,7.30
2019-02-19T08:22:37.149Z,7.30
2019-02-19T08:25:05.921Z,7.40
2019-02-19T08:27:34.354Z,7.40
2019-02-19T08:30:03.909Z,7.50
2019-02-19T08:32:32.454Z,7.70
2019-02-19T08:35:00.976Z,7.80
2019-02-19T08:37:29.415Z,7.80
2019-02-19T08:39:57.971Z,7.90
2019-02-19T08:42:26.477Z,8.00
2019-02-19T08:44:55.060Z,8.00
2019-02-19T08:47:23.545Z,8.10
2019-02-19T08:49:51.968Z,8.10
2019-02-19T08:52:20.524Z,8.20
2019-02-19T08:54:48.943Z,8.30
2019-02-19T08:57:17.374Z,8.30
2019-02-19T08:59:45.956Z,8.40
2019-02-19T09:02:14.523Z,8.40
2019-02-19T09:04:42.987Z,8.50
2019-02-19T09:07:11.560Z,8.50
2019-02-19T09:09:40.005Z,8.50
2019-02-19T09:12:27.860Z,8.60
2019-02-19T09:14:56.329Z,8.60
2019-02-19T09:17:24.815Z,8.60
2019-02-19T09:19:53.279Z,8.70
2019-02-19T09:22:21.842Z,8.70
2019-02-19T09:24:50.307Z,8.80
2019-02-19T09:27:18.720Z,8.90
2019-02-19T09:29:47.622Z,8.90
2019-02-19T09:32:16.209Z,9.00
2019-02-19T09:34:44.639Z,9.10
2019-02-19T09:37:13.356Z,9.20
2019-02-19T09:39:41.808Z,9.20
2019-02-19T09:42:10.315Z,9.20
2019-02-19T09:44:38.779Z,9.30
2019-02-19T09:47:07.326Z,9.30
2019-02-19T09:49:35.799Z,9.30
2019-02-19T09:52:04.307Z,9.30
2019-02-19T09:54:32.777Z,9.40
2019-02-19T09:57:01.412Z,9.50
2019-02-19T09:59:29.873Z,9.50
2019-02-19T10:01:58.268Z,9.60
2019-02-19T10:04:26.746Z,9.60
2019-02-19T10:06:55.210Z,9.60
2019-02-19T10:09:23.700Z,9.60
2019-02-19T10:11:53.258Z,9.70
2019-02-19T10:14:21.689Z,9.80
2019-02-19T10:16:50.201Z,9.80
2019-02-19T10:19:18.695Z,9.80
2019-02-19T10:21:47.085Z,9.80
2019-02-19T10:24:15.641Z,9.90
2019-02-19T10:26:44.080Z,10.00
2019-02-19T10:29:12.505Z,10.10
2019-02-19T10:31:42.073Z,10.10
2019-02-19T10:34:10.564Z,10.10
2019-02-19T10:36:39.038Z,10.20
2019-02-19T10:39:09.171Z,10.20
2019-02-19T10:41:37.695Z,10.30
2019-02-19T10:44:06.040Z,10.30
2019-02-19T10:46:34.626Z,10.40
2019-02-19T10:49:03.026Z,10.40
2019-02-19T10:51:31.510Z,10.40
2019-02-19T10:54:00.186Z,10.50
2019-02-19T10:56:28.591Z,10.50
2019-02-19T10:58:57.153Z,10.60
2019-02-19T11:01:25.591Z,10.60
2019-02-19T11:03:54.164Z,10.60
2019-02-19T11:06:22.695Z,10.60
2019-02-19T11:08:51.155Z,10.70
2019-02-19T11:11:19.658Z,10.70
2019-02-19T11:13:48.183Z,10.80
2019-02-19T11:16:16.695Z,10.90
2019-02-19T11:18:45.204Z,10.90
2019-02-19T11:21:19.623Z,10.90
2019-02-19T11:23:43.811Z,11.00
2019-02-19T11:26:12.212Z,11.00
2019-02-19T11:28:41.212Z,11.00
2019-02-19T11:31:10.948Z,11.10
2019-02-19T11:33:39.442Z,11.10
2019-02-19T11:36:07.907Z,11.10
2019-02-19T11:38:36.447Z,11.20
2019-02-19T11:41:06.512Z,11.20
2019-02-19T11:43:35.068Z,11.30
2019-02-19T11:46:03.527Z,11.30
2019-02-19T11:48:36.893Z,11.30
2019-02-19T11:51:02.101Z,11.40
2019-02-19T11:53:31.619Z,11.40
2019-02-19T11:56:00.117Z,11.40
2019-02-19T11:58:28.623Z,11.40
2019-02-19T12:00:57.242Z,11.40
2019-02-19T12:03:25.743Z,11.40
2019-02-19T12:05:54.210Z,11.50
2019-02-19T12:08:22.736Z,11.50
2019-02-19T12:10:51.281Z,11.60
2019-02-19T12:13:19.688Z,11.60
2019-02-19T12:15:48.179Z,11.70
2019-02-19T12:18:16.749Z,11.70
2019-02-19T12:20:45.292Z,11.70
2019-02-19T12:23:13.897Z,11.90
2019-02-19T12:25:42.375Z,12.00
2019-02-19T12:28:10.889Z,12.00
2019-02-19T12:30:39.264Z,12.00
2019-02-19T12:33:07.666Z,12.00
2019-02-19T12:35:36.122Z,12.10
2019-02-19T12:38:04.692Z,12.10
2019-02-19T12:40:33.152Z,12.20
2019-02-19T12:43:01.800Z,12.20
2019-02-19T12:45:30.264Z,12.20
2019-02-19T12:47:58.667Z,12.30
2019-02-19T12:50:27.101Z,12.40
2019-02-19T12:52:55.673Z,12.50
2019-02-19T12:55:24.071Z,12.70
2019-02-19T12:57:52.559Z,14.00
2019-02-19T13:00:21.068Z,17.00
2019-02-19T13:02:49.550Z,19.70
2019-02-19T13:05:18.008Z,21.60
2019-02-19T13:07:51.172Z,22.60
2019-02-19T13:10:19.908Z,23.10
2019-02-19T13:12:49.151Z,23.70
2019-02-19T13:15:20.624Z,24.30
2019-02-19T13:17:49.203Z,24.40
2019-02-19T13:20:17.669Z,24.70
2019-02-19T13:22:46.137Z,24.80
2019-02-19T13:25:14.564Z,25.00
2019-02-19T13:27:43.024Z,25.50
2019-02-19T13:30:14.707Z,25.50
2019-02-19T13:32:44.599Z,25.30
2019-02-19T13:35:13.515Z,25.30
2019-02-19T13:37:42.056Z,25.60
2019-02-19T13:40:15.768Z,26.00
2019-02-19T13:42:44.264Z,26.30
2019-02-19T13:45:14.395Z,26.20
2019-02-19T13:47:42.815Z,26.10
2019-02-19T13:50:14.224Z,26.10
2019-02-19T13:52:44.352Z,26.30
2019-02-19T13:55:14.435Z,26.40
2019-02-19T13:57:42.843Z,26.80
2019-02-19T14:00:12.955Z,27.00
2019-02-19T14:02:54.121Z,27.10
2019-02-19T14:05:22.671Z,26.60
2019-02-19T14:07:51.168Z,26.10
2019-02-19T14:10:20.879Z,25.70
2019-02-19T14:12:49.400Z,25.60
2019-02-19T14:15:19.438Z,25.60
2019-02-19T14:17:48.003Z,25.20
2019-02-19T14:20:20.989Z,24.80
2019-02-19T14:23:07.468Z,24.20
2019-02-19T14:25:40.265Z,23.70
2019-02-19T14:28:13.587Z,23.10
2019-02-19T14:31:02.154Z,22.30
2019-02-19T14:33:32.184Z,22.10
2019-02-19T14:36:08.381Z,22.00
2019-02-19T14:38:57.956Z,21.90
2019-02-19T14:41:31.025Z,21.80
2019-02-19T14:44:19.281Z,21.50
2019-02-19T14:46:49.351Z,21.60
2019-02-19T14:49:19.380Z,21.90
2019-02-19T14:52:06.147Z,22.50
2019-02-19T14:54:39.174Z,22.50
2019-02-19T14:57:24.584Z,22.50
2019-02-19T14:59:57.815Z,22.70
2019-02-19T15:02:30.467Z,22.70
2019-02-19T15:05:06.290Z,23.10
2019-02-19T15:07:42.206Z,23.40
2019-02-19T15:10:24.198Z,23.40
2019-02-19T15:13:00.475Z,23.30
2019-02-19T15:15:30.538Z,23.20
2019-02-19T15:18:13.245Z,23.10
2019-02-19T15:20:58.820Z,22.90
2019-02-19T15:23:45.389Z,22.50
2019-02-19T15:26:27.700Z,22.20
2019-02-19T15:29:12.906Z,22.00
2019-02-19T15:31:53.192Z,22.00
2019-02-19T15:34:29.352Z,22.00
2019-02-19T15:36:59.419Z,22.20
2019-02-19T15:39:41.534Z,22.10
2019-02-19T15:42:20.482Z,22.10
2019-02-19T15:44:56.107Z,22.00
2019-02-19T15:47:35.137Z,21.80
2019-02-19T15:50:21.556Z,21.60
2019-02-19T15:53:03.487Z,21.50
2019-02-19T15:55:33.549Z,21.20
2019-02-19T15:58:12.399Z,20.70
2019-02-19T16:00:42.501Z,20.30
2019-02-19T16:03:12.556Z,19.90
2019-02-19T16:05:59.096Z,19.60
2019-02-19T16:08:29.138Z,19.40
2019-02-19T16:11:15.821Z,19.10
2019-02-19T16:13:48.937Z,19.10
2019-02-19T16:16:35.228Z,18.90
2019-02-19T16:19:04.638Z,18.70
2019-02-19T16:21:37.711Z,18.40
2019-02-19T16:24:23.141Z,18.10
2019-02-19T16:26:53.194Z,17.80
2019-02-19T16:29:39.525Z,17.60
2019-02-19T16:32:14.971Z,17.40
2019-02-19T16:34:45.104Z,17.00
2019-02-19T16:37:17.903Z,16.60
2019-02-19T16:39:51.036Z,16.20
2019-02-19T16:42:24.071Z,15.70
2019-02-19T16:44:55.996Z,15.30
2019-02-19T16:47:26.059Z,15.00
2019-02-19T16:49:56.121Z,14.80
2019-02-19T16:52:26.245Z,14.60
2019-02-19T16:54:56.430Z,14.40
2019-02-19T16:57:29.472Z,14.20
2019-02-19T16:59:59.511Z,14.10
2019-02-19T17:02:35.638Z,14.00
2019-02-19T17:05:07.096Z,13.90
2019-02-19T17:07:39.895Z,13.70
2019-02-19T17:10:26.987Z,13.60
2019-02-19T17:13:13.296Z,13.60
2019-02-19T17:15:42.834Z,13.50
2019-02-19T17:18:19.015Z,13.30
2019-02-19T17:20:52.085Z,13.20
2019-02-19T17:23:34.431Z,13.10
2019-02-19T17:26:07.240Z,13.00
2019-02-19T17:28:37.475Z,12.90
2019-02-19T17:31:10.491Z,12.90
2019-02-19T17:33:43.392Z,12.80
2019-02-19T17:36:13.572Z,12.70
2019-02-19T17:38:43.696Z,12.70
2019-02-19T17:41:16.625Z,12.60
2019-02-19T17:43:58.748Z,12.60
2019-02-19T17:46:43.931Z,12.60
2019-02-19T17:49:14.133Z,12.50
2019-02-19T17:51:47.347Z,12.50
2019-02-19T17:54:29.469Z,12.40
2019-02-19T17:56:59.581Z,12.40
2019-02-19T17:59:32.645Z,12.40
2019-02-19T18:02:02.743Z,12.40
2019-02-19T18:04:33.259Z,12.40
2019-02-19T18:07:03.579Z,12.30
2019-02-19T18:09:50.430Z,12.30
2019-02-19T18:12:26.538Z,12.20
2019-02-19T18:15:05.677Z,12.20
2019-02-19T18:17:41.827Z,12.10
2019-02-19T18:20:10.286Z,12.10
2019-02-19T18:22:39.025Z,12.00
2019-02-19T18:25:08.003Z,11.90
2019-02-19T18:27:36.522Z,11.90
2019-02-19T18:30:07.429Z,11.90
2019-02-19T18:32:36.442Z,11.90
2019-02-19T18:35:05.411Z,11.90
2019-02-19T18:37:33.896Z,11.80
2019-02-19T18:40:02.549Z,11.80
2019-02-19T18:42:31.003Z,11.80
2019-02-19T18:44:59.561Z,11.70
2019-02-19T18:47:28.247Z,11.70
2019-02-19T18:49:56.713Z,11.60
2019-02-19T18:52:25.271Z,11.60
2019-02-19T18:54:55.079Z,11.50
2019-02-19T18:57:23.764Z,11.50
2019-02-19T18:59:52.226Z,11.40
2019-02-19T19:02:20.877Z,11.30
2019-02-19T19:04:49.465Z,11.20
2019-02-19T19:07:17.917Z,11.10
2019-02-19T19:09:46.468Z,10.90
2019-02-19T19:12:15.094Z,10.90
2019-02-19T19:14:43.575Z,10.80
2019-02-19T19:17:12.083Z,10.70
2019-02-19T19:19:40.792Z,10.70
2019-02-19T19:22:09.368Z,10.50
2019-02-19T19:24:37.868Z,10.30
2019-02-19T19:27:06.469Z,10.20
2019-02-19T19:29:36.166Z,10.10
2019-02-19T19:32:04.740Z,10.20
2019-02-19T19:34:36.120Z,10.20
2019-02-19T19:37:04.827Z,10.10
2019-02-19T19:39:33.322Z,10.00
2019-02-19T19:42:01.807Z,10.00
2019-02-19T19:44:30.355Z,10.00
2019-02-19T19:46:58.912Z,10.00
2019-02-19T19:49:27.467Z,10.00
2019-02-19T19:51:56.051Z,10.00
2019-02-19T19:54:24.522Z,9.90
2019-02-19T19:56:53.223Z,9.90
2019-02-19T19:59:21.728Z,9.80
2019-02-19T20:01:50.207Z,9.70
2019-02-19T20:04:18.793Z,9.70
2019-02-19T20:06:47.434Z,9.70
2019-02-19T20:09:16.007Z,9.70
2019-02-19T20:11:44.588Z,9.70
2019-02-19T20:14:13.247Z,9.70
2019-02-19T20:16:41.824Z,9.70
2019-02-19T20:19:10.356Z,9.70
2019-02-19T20:21:38.960Z,9.70
2019-02-19T20:24:07.605Z,9.60
2019-02-19T20:26:36.417Z,9.60
2019-02-19T20:29:05.597Z,9.70
2019-02-19T20:31:34.593Z,9.70
2019-02-19T20:34:03.497Z,9.70
2019-02-19T20:36:33.591Z,9.70
2019-02-19T20:39:02.672Z,9.70
2019-02-19T20:41:31.861Z,9.70
2019-02-19T20:44:02.043Z,9.70
2019-02-19T20:46:31.293Z,9.70
2019-02-19T20:49:00.672Z,9.60
2019-02-19T20:51:36.086Z,9.70
2019-02-19T20:54:01.511Z,9.70
2019-02-19T20:56:30.369Z,9.70
2019-02-19T20:58:59.321Z,9.60
2019-02-19T21:01:28.449Z,9.50
2019-02-19T21:03:57.209Z,9.50
2019-02-19T21:06:26.376Z,9.40
2019-02-19T21:08:55.323Z,9.30
2019-02-19T21:11:24.037Z,9.30
2019-02-19T21:13:52.581Z,9.30
2019-02-19T21:16:21.163Z,9.20
2019-02-19T21:18:49.722Z,9.20
2019-02-19T21:21:18.248Z,9.20
2019-02-19T21:23:47.343Z,9.10
2019-02-19T21:26:15.886Z,9.10
2019-02-19T21:28:44.631Z,9.00
2019-02-19T21:31:13.164Z,8.90
2019-02-19T21:33:41.551Z,8.90
2019-02-19T21:36:10.159Z,8.90
2019-02-19T21:38:38.536Z,8.90
2019-02-19T21:41:07.862Z,8.90
2019-02-19T21:43:36.444Z,8.80
2019-02-19T21:46:05.101Z,8.80
2019-02-19T21:48:33.614Z,8.90
2019-02-19T21:51:02.046Z,8.80
2019-02-19T21:53:30.550Z,8.80
2019-02-19T21:55:59.327Z,8.80
2019-02-19T21:58:27.851Z,8.80
2019-02-19T22:00:56.396Z,8.90
2019-02-19T22:03:24.919Z,8.80
2019-02-19T22:05:53.358Z,8.80
2019-02-19T22:08:21.927Z,8.80
2019-02-19T22:10:50.563Z,8.80
2019-02-19T22:13:19.091Z,8.80
2019-02-19T22:15:59.999Z,8.80
2019-02-19T22:18:28.467Z,8.70
2019-02-19T22:20:58.542Z,8.80
2019-02-19T22:23:27.048Z,8.80
2019-02-19T22:25:55.537Z,8.80
2019-02-19T22:28:24.125Z,8.80
2019-02-19T22:30:52.673Z,8.80
2019-02-19T22:33:21.182Z,8.80
2019-02-19T22:35:49.571Z,8.70
2019-02-19T22:38:18.236Z,8.70
2019-02-19T22:40:54.825Z,8.70
2019-02-19T22:43:16.820Z,8.70
2019-02-19T22:45:45.466Z,8.70
2019-02-19T22:48:14.096Z,8.70
2019-02-19T22:50:42.673Z,8.70
2019-02-19T22:53:29.183Z,8.70
2019-02-19T22:55:57.842Z,8.70
2019-02-19T22:58:26.374Z,8.60
2019-02-19T23:00:56.427Z,8.50
2019-02-19T23:03:26.608Z,8.50
2019-02-19T23:05:55.139Z,8.40
2019-02-19T23:08:23.614Z,8.40
2019-02-19T23:10:53.284Z,8.50
2019-02-19T23:13:21.716Z,8.50
2019-02-19T23:15:50.228Z,8.50
2019-02-19T23:18:18.948Z,8.50
2019-02-19T23:20:47.443Z,8.50
2019-02-19T23:23:15.879Z,8.50
2019-02-19T23:25:44.362Z,8.60
2019-02-19T23:28:13.022Z,8.60
2019-02-19T23:30:41.571Z,8.60
2019-02-19T23:33:10.133Z,8.60
2019-02-19T23:35:40.363Z,8.60
2019-02-19T23:38:08.884Z,8.60
2019-02-19T23:40:56.834Z,8.60
2019-02-19T23:43:25.423Z,8.60
2019-02-19T23:45:53.999Z,8.60
2019-02-19T23:48:22.535Z,8.50
2019-02-19T23:50:51.001Z,8.50
2019-02-19T23:53:19.542Z,8.50
2019-02-19T23:55:48.150Z,8.40
2019-02-19T23:58:16.652Z,8.40
